createdAt,value
2022-10-20T00:00:00.743Z,97.15
2022-10-20T00:01:01.669Z,97.09
2022-10-20T00:02:01.373Z,97.05
2022-10-20T00:03:01.699Z,97.31
2022-10-20T00:04:02.417Z,97.4
2022-10-20T00:05:02.512Z,97.52
2022-10-20T00:07:03.549Z,97.49
2022-10-20T00:08:04.074Z,97.41
2022-10-20T00:09:05.219Z,97.47
2022-10-20T00:10:05.320Z,97.7
2022-10-20T00:11:05.530Z,97.88
2022-10-20T00:12:05.735Z,98.08
2022-10-20T00:13:05.639Z,98.11
2022-10-20T00:14:06.927Z,98.1
2022-10-20T00:15:07.183Z,98.08
2022-10-20T00:16:07.711Z,98.05
2022-10-20T00:17:06.899Z,97.92
2022-10-20T00:18:07.170Z,97.95
2022-10-20T00:19:07.785Z,97.89
2022-10-20T00:20:09.003Z,97.79
2022-10-20T00:21:10.705Z,97.78
2022-10-20T00:22:08.571Z,97.85
2022-10-20T00:23:08.878Z,97.77
2022-10-20T00:24:09.087Z,97.75
2022-10-20T00:25:10.015Z,97.81
2022-10-20T00:26:13.297Z,97.8
2022-10-20T00:27:10.746Z,97.81
2022-10-20T00:28:11.165Z,97.9
2022-10-20T00:29:11.451Z,97.97
2022-10-20T00:30:12.102Z,97.81
2022-10-20T00:31:12.719Z,97.76
2022-10-20T00:32:12.429Z,97.8
2022-10-20T00:33:12.749Z,97.91
2022-10-20T00:34:13.046Z,97.81
2022-10-20T00:35:13.765Z,97.87
2022-10-20T00:36:16.450Z,97.9
2022-10-20T00:37:14.099Z,97.9
2022-10-20T00:38:14.451Z,98.04
2022-10-20T00:39:14.629Z,98.08
2022-10-20T00:40:15.132Z,98.11
2022-10-20T00:41:17.675Z,98.05
2022-10-20T00:42:16.788Z,98.02
2022-10-20T00:43:17.366Z,97.83
2022-10-20T00:45:19.989Z,97.7
2022-10-20T00:48:23.232Z,97.46
2022-10-20T00:51:29.040Z,97.93
2022-10-20T00:52:26.568Z,97.97
2022-10-20T00:53:29.519Z,98.13
2022-10-20T00:54:27.989Z,98.08
2022-10-20T00:55:30.174Z,97.93
2022-10-20T00:56:27.902Z,98.17
2022-10-20T00:57:28.773Z,98.25
2022-10-20T00:58:28.929Z,98.3
2022-10-20T01:00:31.107Z,98.26
2022-10-20T01:01:32.528Z,98.24
2022-10-20T01:02:32.420Z,98.46
2022-10-20T01:04:37.309Z,98.58
2022-10-20T01:05:35.773Z,98.54
2022-10-20T01:06:36.392Z,98.77
2022-10-20T01:07:36.412Z,98.69
2022-10-20T01:08:36.777Z,98.69
2022-10-20T01:09:36.812Z,98.84
2022-10-20T01:30:32.258Z,99.17
2022-10-20T01:37:00.660Z,99.32
2022-10-20T01:41:14.180Z,99.63
2022-10-20T01:42:13.497Z,99.67
2022-10-20T01:43:15.255Z,99.71
2022-10-20T01:44:16.994Z,99.74
2022-10-20T01:45:17.720Z,99.69
2022-10-20T01:46:17.411Z,99.75
2022-10-20T01:47:17.633Z,99.79
2022-10-20T01:48:19.481Z,99.82
2022-10-20T01:49:17.026Z,99.84
2022-10-20T01:50:19.602Z,99.87
2022-10-20T01:51:17.757Z,99.87
2022-10-20T01:52:17.968Z,99.88
2022-10-20T01:53:19.919Z,99.77
2022-10-20T01:54:27.187Z,99.63
2022-10-20T01:55:19.639Z,99.46
2022-10-20T02:00:34.937Z,99.27
2022-10-20T02:07:44.697Z,99.72
2022-10-20T02:10:53.414Z,99.54
2022-10-20T02:12:58.544Z,99.6
2022-10-20T02:13:57.437Z,99.82
2022-10-20T02:14:56.708Z,99.92
2022-10-20T02:16:00.312Z,99.91
2022-10-20T02:17:00.837Z,99.98
2022-10-20T02:18:03.504Z,99.94
2022-10-20T02:19:02.161Z,99.89
2022-10-20T02:20:01.450Z,99.87
2022-10-20T02:21:03.912Z,99.9
2022-10-20T02:22:03.020Z,99.87
2022-10-20T02:23:04.749Z,100
2022-10-20T02:24:06.620Z,100
2022-10-20T02:25:04.667Z,100
2022-10-20T02:26:09.499Z,99.9
2022-10-20T02:30:18.278Z,99.75
2022-10-20T02:31:17.397Z,99.71
2022-10-20T02:32:17.626Z,99.8
2022-10-20T02:33:18.139Z,99.97
2022-10-20T02:34:16.610Z,100
2022-10-20T02:35:23.269Z,100
2022-10-20T02:36:25.221Z,100
2022-10-20T02:37:22.454Z,100
2022-10-20T02:38:23.084Z,100
2022-10-20T02:39:23.503Z,100
2022-10-20T02:40:23.506Z,99.86
2022-10-20T02:41:23.812Z,99.84
2022-10-20T02:42:24.248Z,99.77
2022-10-20T02:43:24.547Z,99.62
2022-10-20T02:44:24.972Z,99.6
2022-10-20T02:45:25.288Z,99.8
2022-10-20T02:46:25.498Z,99.67
2022-10-20T02:47:25.702Z,99.67
2022-10-20T02:48:26.020Z,99.62
2022-10-20T02:49:26.627Z,99.58
2022-10-20T02:50:27.350Z,99.62
2022-10-20T02:51:26.954Z,99.62
2022-10-20T02:52:27.479Z,99.66
2022-10-20T02:53:27.805Z,99.68
2022-10-20T02:54:28.303Z,99.86
2022-10-20T02:55:28.408Z,100
2022-10-20T02:56:30.898Z,100
2022-10-20T02:57:29.038Z,100
2022-10-20T02:58:29.460Z,99.94
2022-10-20T02:59:29.768Z,99.86
2022-10-20T03:00:30.059Z,99.88
2022-10-20T03:01:30.454Z,99.89
2022-10-20T03:02:30.707Z,99.79
2022-10-20T03:03:30.905Z,99.75
2022-10-20T03:04:31.285Z,99.66
2022-10-20T03:05:31.959Z,99.67
2022-10-20T03:06:32.171Z,99.63
2022-10-20T03:07:32.395Z,99.73
2022-10-20T03:08:32.765Z,99.86
2022-10-20T03:09:33.227Z,100
2022-10-20T03:10:33.430Z,100
2022-10-20T03:11:34.043Z,99.95
2022-10-20T03:12:34.270Z,100
2022-10-20T03:13:34.452Z,100
2022-10-20T03:14:34.568Z,99.9
2022-10-20T03:15:34.910Z,99.91
2022-10-20T03:16:35.305Z,99.87
2022-10-20T03:17:36.172Z,99.88
2022-10-20T03:18:35.942Z,99.71
2022-10-20T03:19:36.553Z,99.65
2022-10-20T03:20:36.674Z,99.76
2022-10-20T03:21:37.288Z,99.82
2022-10-20T03:22:37.514Z,99.87
2022-10-20T03:23:37.813Z,100
2022-10-20T03:24:38.123Z,100
2022-10-20T03:25:38.445Z,99.99
2022-10-20T03:26:38.856Z,99.84
2022-10-20T03:27:39.342Z,99.79
2022-10-20T03:28:40.404Z,99.84
2022-10-20T03:29:39.796Z,99.73
2022-10-20T03:30:40.117Z,99.61
2022-10-20T03:31:40.485Z,99.48
2022-10-20T03:32:40.941Z,99.51
2022-10-20T03:33:41.049Z,99.4
2022-10-20T03:34:41.362Z,99.49
2022-10-20T03:35:41.674Z,99.59
2022-10-20T03:36:42.108Z,99.74
2022-10-20T03:37:42.508Z,99.76
2022-10-20T03:38:43.552Z,99.85
2022-10-20T03:39:43.244Z,99.9
2022-10-20T03:40:43.458Z,100
2022-10-20T03:41:43.762Z,100
2022-10-20T03:42:44.281Z,100
2022-10-20T03:43:44.289Z,100
2022-10-20T03:44:44.824Z,100
2022-10-20T03:45:45.430Z,100
2022-10-20T03:46:45.440Z,100
2022-10-20T03:47:45.762Z,100
2022-10-20T03:48:46.060Z,100
2022-10-20T03:49:46.282Z,100
2022-10-20T03:50:46.689Z,100
2022-10-20T03:51:47.116Z,100
2022-10-20T03:52:50.770Z,100
2022-10-20T03:53:48.247Z,100
2022-10-20T03:54:48.472Z,100
2022-10-20T03:55:48.635Z,100
2022-10-20T03:56:48.942Z,100
2022-10-20T03:57:49.379Z,100
2022-10-20T03:58:49.992Z,100
2022-10-20T03:59:50.032Z,100
2022-10-20T04:00:50.716Z,100
2022-10-20T04:01:50.996Z,100
2022-10-20T04:02:51.385Z,100
2022-10-20T04:03:51.484Z,100
2022-10-20T04:04:52.107Z,100
2022-10-20T04:05:52.667Z,100
2022-10-20T04:06:52.435Z,100
2022-10-20T04:07:52.751Z,100
2022-10-20T04:08:53.226Z,100
2022-10-20T04:09:53.480Z,100
2022-10-20T04:10:53.786Z,100
2022-10-20T04:11:54.108Z,100
2022-10-20T04:13:01.386Z,99.98
2022-10-20T04:13:58.832Z,99.9
2022-10-20T04:14:59.174Z,99.87
2022-10-20T04:15:59.464Z,99.88
2022-10-20T04:16:59.608Z,99.97
2022-10-20T04:18:00.185Z,100
2022-10-20T04:19:00.409Z,100
2022-10-20T04:20:00.712Z,100
2022-10-20T04:21:01.239Z,100
2022-10-20T04:22:01.496Z,100
2022-10-20T04:23:01.662Z,100
2022-10-20T04:24:01.967Z,100
2022-10-20T04:25:02.389Z,100
2022-10-20T04:27:05.887Z,100
2022-10-20T04:28:06.089Z,100
2022-10-20T04:29:06.703Z,100
2022-10-20T04:30:08.347Z,100
2022-10-20T04:31:07.644Z,100
2022-10-20T04:32:07.650Z,100
2022-10-20T04:33:07.862Z,100
2022-10-20T04:34:08.831Z,100
2022-10-20T04:35:09.381Z,100
2022-10-20T04:36:12.520Z,100
2022-10-20T04:37:09.829Z,100
2022-10-20T04:38:10.458Z,100
2022-10-20T04:39:10.667Z,100
2022-10-20T04:40:11.798Z,100
2022-10-20T04:41:11.401Z,100
2022-10-20T04:42:11.711Z,100
2022-10-20T04:43:11.927Z,100
2022-10-20T04:44:12.313Z,100
2022-10-20T04:45:12.555Z,100
2022-10-20T04:46:12.944Z,100
2022-10-20T04:47:13.282Z,100
2022-10-20T04:48:13.591Z,100
2022-10-20T04:49:14.003Z,100
2022-10-20T04:50:14.343Z,100
2022-10-20T04:51:16.175Z,100
2022-10-20T04:52:15.561Z,100
2022-10-20T04:53:15.162Z,100
2022-10-20T04:54:15.573Z,100
2022-10-20T04:55:15.899Z,100
2022-10-20T04:56:20.782Z,100
2022-10-20T04:57:18.356Z,100
2022-10-20T04:58:18.390Z,100
2022-10-20T04:59:18.751Z,100
2022-10-20T05:00:19.213Z,100
2022-10-20T05:01:21.511Z,100
2022-10-20T05:02:19.832Z,100
2022-10-20T05:03:20.739Z,100
2022-10-20T05:04:20.348Z,100
2022-10-20T05:05:21.179Z,100
2022-10-20T05:06:24.367Z,100
2022-10-20T05:07:21.700Z,100
2022-10-20T05:08:22.092Z,100
2022-10-20T05:09:22.548Z,100
2022-10-20T05:10:22.861Z,100
2022-10-20T05:11:24.463Z,100
2022-10-20T05:12:23.478Z,100
2022-10-20T05:13:23.735Z,100
2022-10-20T05:14:24.211Z,100
2022-10-20T05:15:24.491Z,100
2022-10-20T05:16:25.146Z,100
2022-10-20T05:17:25.146Z,100
2022-10-20T05:18:25.564Z,100
2022-10-20T05:19:25.783Z,100
2022-10-20T05:20:26.201Z,100
2022-10-20T05:21:29.018Z,100
2022-10-20T05:22:26.930Z,100
2022-10-20T05:23:27.233Z,100
2022-10-20T05:24:29.988Z,100
2022-10-20T05:25:36.846Z,100
2022-10-20T05:26:31.053Z,100
2022-10-20T05:27:29.831Z,100
2022-10-20T05:28:30.243Z,100
2022-10-20T05:29:30.654Z,99.98
2022-10-20T05:30:30.954Z,99.93
2022-10-20T05:31:32.535Z,99.84
2022-10-20T05:32:31.372Z,99.9
2022-10-20T05:33:31.932Z,99.88
2022-10-20T05:34:32.122Z,99.74
2022-10-20T05:35:32.552Z,99.77
2022-10-20T05:36:32.866Z,99.92
2022-10-20T05:37:33.311Z,99.91
2022-10-20T05:38:33.583Z,99.87
2022-10-20T05:39:33.817Z,99.78
2022-10-20T05:40:34.504Z,99.8
2022-10-20T05:41:38.010Z,99.75
2022-10-20T05:42:37.018Z,99.84
2022-10-20T05:43:37.974Z,99.83
2022-10-20T05:44:37.967Z,99.76
2022-10-20T05:45:38.498Z,99.78
2022-10-20T05:46:39.400Z,99.73
2022-10-20T05:47:38.370Z,99.77
2022-10-20T05:48:42.965Z,99.84
2022-10-20T05:49:41.377Z,99.97
2022-10-20T05:50:41.730Z,100
2022-10-20T05:51:42.220Z,99.94
2022-10-20T05:52:42.092Z,99.86
2022-10-20T05:53:42.944Z,99.75
2022-10-20T05:54:43.040Z,99.67
2022-10-20T05:55:42.610Z,99.61
2022-10-20T05:56:43.870Z,99.54
2022-10-20T05:57:43.441Z,99.5
2022-10-20T05:58:44.931Z,99.54
2022-10-20T05:59:43.864Z,99.48
2022-10-20T06:00:45.504Z,99.3
2022-10-20T06:01:44.554Z,99.26
2022-10-20T06:02:45.228Z,99.23
2022-10-20T06:04:46.205Z,98.74
2022-10-20T06:05:46.864Z,98.58
2022-10-20T06:06:47.286Z,98.44
2022-10-20T06:07:47.494Z,98.32
2022-10-20T06:08:48.486Z,98.17
2022-10-20T06:09:48.225Z,98.17
2022-10-20T06:10:48.413Z,98.18
2022-10-20T06:11:49.128Z,98.11
2022-10-20T06:12:49.162Z,98.02
2022-10-20T06:13:51.885Z,97.79
2022-10-20T06:14:50.608Z,97.72
2022-10-20T06:15:51.031Z,97.66
2022-10-20T06:16:52.371Z,97.62
2022-10-20T06:17:51.746Z,97.45
2022-10-20T06:18:52.892Z,97.43
2022-10-20T06:19:52.382Z,97.39
2022-10-20T06:21:02.837Z,97.44
2022-10-20T06:21:55.389Z,97.54
2022-10-20T06:22:55.806Z,97.52
2022-10-20T06:23:57.836Z,97.58
2022-10-20T06:24:56.307Z,97.6
2022-10-20T06:26:02.873Z,97.55
2022-10-20T06:27:00.422Z,97.47
2022-10-20T06:28:00.745Z,97.34
2022-10-20T06:29:04.681Z,97.25
2022-10-20T06:30:02.703Z,97.22
2022-10-20T06:31:11.982Z,97.05
2022-10-20T06:32:05.187Z,97.03
2022-10-20T06:33:04.920Z,97.05
2022-10-20T06:34:07.224Z,96.96
2022-10-20T06:35:06.285Z,96.82
2022-10-20T06:36:06.483Z,96.73
2022-10-20T06:37:06.323Z,96.72
2022-10-20T06:38:06.617Z,96.56
2022-10-20T06:39:08.502Z,96.36
2022-10-20T06:40:08.084Z,96.15
2022-10-20T06:41:13.516Z,95.92
2022-10-20T06:42:12.148Z,95.76
2022-10-20T06:43:11.583Z,95.81
2022-10-20T06:44:12.111Z,95.91
2022-10-20T06:45:14.394Z,95.64
2022-10-20T06:46:17.144Z,95.51
2022-10-20T06:47:14.883Z,95.57
2022-10-20T06:48:15.304Z,95.37
2022-10-20T06:49:15.713Z,95.33
2022-10-20T06:50:16.445Z,95.52
2022-10-20T06:51:18.102Z,95.2
2022-10-20T06:52:16.567Z,94.8
2022-10-20T06:53:17.044Z,94.54
2022-10-20T06:54:17.696Z,94.62
2022-10-20T06:55:17.907Z,94.68
2022-10-20T06:56:23.135Z,94.62
2022-10-20T06:57:20.483Z,94.75
2022-10-20T06:58:21.125Z,94.65
2022-10-20T06:59:21.512Z,94.65
2022-10-20T07:00:21.767Z,94.43
2022-10-20T07:01:25.292Z,94.47
2022-10-20T07:02:22.882Z,94.71
2022-10-20T07:03:23.404Z,94.49
2022-10-20T07:04:23.699Z,94.52
2022-10-20T07:05:24.221Z,94.25
2022-10-20T07:07:27.219Z,94.68
2022-10-20T07:08:29.098Z,95.05
2022-10-20T07:09:28.039Z,95.21
2022-10-20T07:10:28.042Z,95.22
2022-10-20T07:11:29.904Z,95.26
2022-10-20T07:12:28.886Z,95.59
2022-10-20T07:13:30.322Z,96.03
2022-10-20T07:14:32.329Z,96.19
2022-10-20T07:15:30.022Z,96.22
2022-10-20T07:16:32.891Z,96.2
2022-10-20T07:17:30.852Z,96.39
2022-10-20T07:18:31.991Z,96.56
2022-10-20T07:19:31.578Z,96.73
2022-10-20T07:20:31.982Z,96.6
2022-10-20T07:21:36.442Z,96.69
2022-10-20T07:22:35.440Z,96.85
2022-10-20T07:23:36.127Z,96.91
2022-10-20T07:24:36.317Z,96.91
2022-10-20T07:25:35.822Z,97.03
2022-10-20T07:26:40.064Z,97.23
2022-10-20T07:27:37.681Z,97.34
2022-10-20T07:28:40.042Z,97.1
2022-10-20T07:29:38.485Z,96.97
2022-10-20T07:30:40.567Z,96.99
2022-10-20T07:31:44.794Z,97.04
2022-10-20T07:32:42.323Z,96.99
2022-10-20T07:33:43.340Z,96.84
2022-10-20T07:34:43.466Z,96.76
2022-10-20T07:35:43.465Z,96.61
2022-10-20T07:36:44.803Z,96.65
2022-10-20T07:37:44.599Z,96.51
2022-10-20T07:38:44.825Z,96.47
2022-10-20T07:39:45.127Z,96.45
2022-10-20T07:40:45.344Z,96.34
2022-10-20T07:41:45.867Z,96.54
2022-10-20T07:42:46.165Z,96.55
2022-10-20T07:43:46.391Z,96.52
2022-10-20T07:44:46.963Z,96.58
2022-10-20T07:45:47.215Z,96.89
2022-10-20T07:46:47.834Z,97.2
2022-10-20T07:47:48.259Z,97.34
2022-10-20T07:48:48.689Z,97.46
2022-10-20T07:50:49.096Z,98.03
2022-10-20T07:51:49.369Z,98.04
2022-10-20T07:52:52.976Z,97.95
2022-10-20T07:53:58.214Z,97.96
2022-10-20T07:55:01.578Z,97.85
2022-10-20T07:55:54.726Z,97.66
2022-10-20T07:56:54.974Z,97.58
2022-10-20T07:57:55.646Z,97.88
2022-10-20T07:58:56.114Z,97.84
2022-10-20T07:59:56.127Z,97.88
2022-10-20T08:00:56.526Z,97.83
2022-10-20T08:01:59.548Z,97.82
2022-10-20T08:02:57.477Z,97.54
2022-10-20T08:03:58.085Z,97.26
2022-10-20T08:04:58.092Z,97.06
2022-10-20T08:05:58.667Z,97.13
2022-10-20T08:06:59.537Z,97.21
2022-10-20T08:07:59.442Z,97.37
2022-10-20T08:08:59.956Z,97.47
2022-10-20T08:10:00.298Z,97.79
2022-10-20T08:11:00.803Z,97.92
2022-10-20T08:12:00.805Z,97.95
2022-10-20T08:13:01.022Z,97.95
2022-10-20T08:14:01.644Z,98.04
2022-10-20T08:15:01.845Z,97.89
2022-10-20T08:16:21.891Z,97.93
2022-10-20T08:17:05.149Z,97.77
2022-10-20T08:18:05.355Z,97.76
2022-10-20T08:19:14.453Z,97.77
2022-10-20T08:21:14.073Z,97.69
2022-10-20T08:22:11.647Z,97.55
2022-10-20T08:23:15.316Z,97.63
2022-10-20T08:24:12.558Z,97.56
2022-10-20T08:25:15.129Z,97.34
2022-10-20T08:26:17.996Z,97.3
2022-10-20T08:27:15.445Z,97
2022-10-20T08:28:15.765Z,96.97
2022-10-20T08:29:16.277Z,97.02
2022-10-20T08:30:23.904Z,96.9
2022-10-20T08:31:17.145Z,96.46
2022-10-20T08:32:16.983Z,96.33
2022-10-20T08:33:17.303Z,96.39
2022-10-20T08:34:17.952Z,96.6
2022-10-20T08:35:18.883Z,96.11
2022-10-20T08:36:19.082Z,95.82
2022-10-20T08:38:19.507Z,95.5
2022-10-20T08:39:19.730Z,96.03
2022-10-20T08:40:27.708Z,96.54
2022-10-20T08:41:55.245Z,96.84
2022-10-20T08:42:27.515Z,96.77
2022-10-20T08:43:28.665Z,96.45
2022-10-20T08:44:31.638Z,96.15
2022-10-20T08:45:29.337Z,96.19
2022-10-20T08:46:38.366Z,95.98
2022-10-20T08:47:35.581Z,95.71
2022-10-20T08:48:34.846Z,95.32
2022-10-20T08:49:35.351Z,95.02
2022-10-20T08:50:34.765Z,95.09
2022-10-20T08:51:37.003Z,94.9
2022-10-20T08:52:35.483Z,94.83
2022-10-20T08:53:39.884Z,94.84
2022-10-20T08:54:37.323Z,94.99
2022-10-20T08:55:37.743Z,95.06
2022-10-20T08:56:38.185Z,95.05
2022-10-20T08:57:39.552Z,95.19
2022-10-20T08:58:43.507Z,95.08
2022-10-20T08:59:41.323Z,94.85
2022-10-20T09:00:42.383Z,94.64
2022-10-20T09:01:42.505Z,94.23
2022-10-20T09:02:43.029Z,94.61
2022-10-20T09:03:43.207Z,94.46
2022-10-20T09:05:46.425Z,94.27
2022-10-20T09:06:47.235Z,93.82
2022-10-20T09:07:44.583Z,93.86
2022-10-20T09:08:46.169Z,93.8
2022-10-20T09:09:45.728Z,93.69
2022-10-20T09:10:51.979Z,93.88
2022-10-20T09:11:50.350Z,94.11
2022-10-20T09:12:50.785Z,93.93
2022-10-20T09:13:50.290Z,93.62
2022-10-20T09:14:50.566Z,93.85
2022-10-20T09:15:54.064Z,94.12
2022-10-20T09:17:00.676Z,94.37
2022-10-20T09:18:01.150Z,94.5
2022-10-20T09:19:00.425Z,94.24
2022-10-20T09:20:00.634Z,94.24
2022-10-20T09:22:06.563Z,94.19
2022-10-20T09:23:16.664Z,94.11
2022-10-20T09:24:07.213Z,94.17
2022-10-20T09:29:20.657Z,94.59
2022-10-20T09:33:32.066Z,95
2022-10-20T09:34:34.627Z,95.05
2022-10-20T09:35:35.980Z,95.6
2022-10-20T09:36:35.765Z,95.98
2022-10-20T09:37:36.994Z,96.14
2022-10-20T09:38:35.685Z,95.78
2022-10-20T09:41:41.544Z,95.89
2022-10-20T09:45:54.974Z,95.42
2022-10-20T09:46:54.771Z,94.97
2022-10-20T09:48:54.738Z,93.85
2022-10-20T09:50:57.883Z,94.07
2022-10-20T09:51:57.673Z,94.37
2022-10-20T09:52:59.244Z,94.42
2022-10-20T09:56:00.561Z,93.8
2022-10-20T09:58:05.496Z,93.27
2022-10-20T09:59:07.965Z,93.83
2022-10-20T10:00:19.152Z,93.93
2022-10-20T10:03:22.729Z,92.45
2022-10-20T10:05:30.846Z,92.37
2022-10-20T10:07:31.669Z,92.57
2022-10-20T10:08:45.719Z,91.57
2022-10-20T10:09:35.665Z,91.43
2022-10-20T10:10:33.622Z,91.51
2022-10-20T10:11:35.955Z,91.83
2022-10-20T10:12:35.264Z,91.97
2022-10-20T10:13:43.786Z,91.94
2022-10-20T10:14:37.242Z,92.17
2022-10-20T10:15:38.471Z,92.48
2022-10-20T10:16:42.781Z,92.34
2022-10-20T10:17:42.989Z,92.41
2022-10-20T10:18:43.324Z,92.5
2022-10-20T10:19:52.473Z,92.35
2022-10-20T10:20:56.544Z,92.5
2022-10-20T10:21:54.711Z,92.35
2022-10-20T10:22:53.170Z,92.04
2022-10-20T10:23:59.330Z,92.11
2022-10-20T10:24:57.886Z,93.24
2022-10-20T10:26:00.685Z,92.78
2022-10-20T10:27:00.978Z,91.9
2022-10-20T10:29:03.036Z,92.22
2022-10-20T10:36:29.826Z,92.87
2022-10-20T10:37:22.979Z,92.97
2022-10-20T10:38:22.726Z,93.61
2022-10-20T10:39:23.288Z,93.85
2022-10-20T10:40:37.524Z,93.51
2022-10-20T10:46:46.391Z,94.48
2022-10-20T10:55:48.264Z,95.54
2022-10-20T11:27:30.966Z,97.09
2022-10-20T11:28:42.545Z,96.63
2022-10-20T11:30:34.366Z,95.8
2022-10-20T11:33:47.583Z,95.36
2022-10-20T11:37:00.205Z,95.01
2022-10-20T11:38:56.449Z,94.09
2022-10-20T11:44:14.803Z,93.05
2022-10-20T11:49:27.011Z,90.76
2022-10-20T11:50:27.785Z,90.1
2022-10-20T12:15:33.728Z,91.15
2022-10-20T12:18:38.765Z,91.2
2022-10-20T12:19:39.184Z,90.44
2022-10-20T12:22:42.704Z,89.94
2022-10-20T12:25:49.466Z,89.02
2022-10-20T12:30:02.303Z,88.75
2022-10-20T12:31:05.486Z,89.21
2022-10-20T12:38:22.415Z,88.89
2022-10-20T12:39:22.845Z,88.98
2022-10-20T12:41:30.743Z,89.53
2022-10-20T12:42:31.044Z,89.79
2022-10-20T12:44:43.342Z,87.77
2022-10-20T12:45:42.023Z,86.91
2022-10-20T12:46:43.876Z,87.01
2022-10-20T12:47:49.023Z,87.46
2022-10-20T12:48:45.125Z,87.92
2022-10-20T12:49:55.664Z,87.63
2022-10-20T12:50:47.274Z,87.73
2022-10-20T12:51:56.304Z,87.23
2022-10-20T12:52:49.033Z,87.01
2022-10-20T12:54:01.223Z,87.17
2022-10-20T12:57:02.186Z,87.47
2022-10-20T13:00:07.773Z,87.87
2022-10-20T13:09:23.954Z,87.96
2022-10-20T13:12:40.263Z,87.69
2022-10-20T13:15:52.445Z,87.73
2022-10-20T13:18:51.658Z,87.15
2022-10-20T13:21:56.495Z,87.28
2022-10-20T13:22:55.773Z,87.38
2022-10-20T13:24:59.388Z,87.23
2022-10-20T13:25:59.556Z,87.01
2022-10-20T13:27:04.066Z,87.02
2022-10-20T13:29:02.285Z,87.09
2022-10-20T13:30:07.727Z,87.52
2022-10-20T13:38:31.205Z,87.18
2022-10-20T13:52:49.939Z,89.49
2022-10-20T13:53:51.064Z,90.06
2022-10-20T13:54:51.589Z,90.42
2022-10-20T13:56:51.601Z,90.75
2022-10-20T13:57:56.333Z,91.04
2022-10-20T14:01:15.198Z,91.78
2022-10-20T14:05:21.448Z,91.95
2022-10-20T14:07:21.768Z,91.9
2022-10-20T14:08:23.523Z,92.31
2022-10-20T14:09:26.105Z,92.32
2022-10-20T14:11:32.426Z,92.66
2022-10-20T14:12:32.563Z,92.69
2022-10-20T14:13:33.604Z,92.99
2022-10-20T14:14:32.000Z,93.38
2022-10-20T14:15:34.825Z,93.32
2022-10-20T14:16:33.005Z,93.15
2022-10-20T14:17:33.842Z,93.37
2022-10-20T14:18:36.227Z,93.53
2022-10-20T14:19:34.671Z,93.77
2022-10-20T14:20:37.012Z,93.43
2022-10-20T14:22:43.779Z,93.87
2022-10-20T14:23:42.666Z,93.66
2022-10-20T14:24:46.668Z,93.92
2022-10-20T14:25:45.133Z,93.9
2022-10-20T14:26:45.586Z,93.5
2022-10-20T14:27:45.253Z,93.96
2022-10-20T14:28:47.306Z,94.08
2022-10-20T14:29:46.385Z,94.56
2022-10-20T14:30:50.603Z,94.86
2022-10-20T14:31:49.571Z,94.75
2022-10-20T14:32:50.726Z,95.2
2022-10-20T14:33:51.745Z,95.37
2022-10-20T14:35:57.065Z,95.43
2022-10-20T14:36:56.685Z,95.12
2022-10-20T14:38:59.657Z,95.69
2022-10-20T14:40:02.547Z,95.92
2022-10-20T14:41:00.004Z,96.2
2022-10-20T14:42:04.704Z,95.75
2022-10-20T14:44:12.232Z,96.22
2022-10-20T14:45:07.686Z,96.45
2022-10-20T14:46:11.789Z,96.57
2022-10-20T14:47:12.726Z,96.71
2022-10-20T14:48:16.167Z,97.05
2022-10-20T14:56:24.650Z,97.85
2022-10-20T15:01:33.388Z,98.87
2022-10-20T15:02:36.882Z,99
2022-10-20T15:03:36.645Z,99.19
2022-10-20T15:04:36.387Z,99.35
2022-10-20T15:06:39.076Z,99.49
2022-10-20T15:07:43.364Z,99.52
2022-10-20T15:08:41.309Z,99.75
2022-10-20T15:10:46.766Z,100
2022-10-20T15:11:46.064Z,100
2022-10-20T15:12:48.363Z,100
2022-10-20T15:15:51.615Z,99.74
2022-10-20T15:16:52.082Z,99.36
2022-10-20T15:19:56.304Z,99.18
2022-10-20T15:20:57.372Z,99.13
2022-10-20T15:22:08.591Z,99.15
2022-10-20T15:24:02.113Z,99.48
2022-10-20T15:25:02.520Z,99.42
2022-10-20T15:27:13.083Z,99.47
2022-10-20T15:29:15.866Z,99.29
2022-10-20T15:30:20.982Z,99.27
2022-10-20T15:31:29.125Z,99.1
2022-10-20T15:32:22.121Z,99.11
2022-10-20T15:33:22.143Z,99.21
2022-10-20T15:34:22.418Z,99.32
2022-10-20T15:35:22.820Z,99.51
2022-10-20T15:36:28.198Z,99.56
2022-10-20T15:37:25.637Z,99.71
2022-10-20T15:38:26.023Z,99.8
2022-10-20T15:39:26.371Z,99.88
2022-10-20T15:40:26.888Z,99.96
2022-10-20T15:41:29.450Z,100
2022-10-20T15:42:27.725Z,100
2022-10-20T15:43:27.928Z,100
2022-10-20T15:44:28.563Z,100
2022-10-20T15:45:35.121Z,100
2022-10-20T15:46:32.784Z,100
2022-10-20T15:47:33.186Z,100
2022-10-20T15:48:33.575Z,100
2022-10-20T15:49:34.135Z,100
2022-10-20T15:50:34.443Z,100
2022-10-20T15:51:36.283Z,100
2022-10-20T15:52:35.585Z,100
2022-10-20T15:53:35.166Z,100
2022-10-20T15:54:35.687Z,100
2022-10-20T15:55:39.372Z,100
2022-10-20T15:56:37.132Z,100
2022-10-20T15:57:37.476Z,100
2022-10-20T15:58:39.783Z,100
2022-10-20T15:59:38.524Z,100
2022-10-20T16:00:38.697Z,100
2022-10-20T16:01:39.360Z,99.94
2022-10-20T16:02:39.576Z,99.79
2022-10-20T16:03:40.264Z,99.95
2022-10-20T16:04:39.917Z,100
2022-10-20T16:05:40.369Z,99.88
2022-10-20T16:06:40.577Z,99.9
2022-10-20T16:07:41.301Z,100
2022-10-20T16:08:43.153Z,100
2022-10-20T16:09:42.023Z,99.97
2022-10-20T16:10:42.237Z,99.74
2022-10-20T16:11:42.463Z,100
2022-10-20T16:12:43.078Z,100
2022-10-20T16:13:43.605Z,99.95
2022-10-20T16:14:43.801Z,100
2022-10-20T16:15:44.111Z,100
2022-10-20T16:16:44.437Z,100
2022-10-20T16:17:46.322Z,100
2022-10-20T16:18:45.675Z,100
2022-10-20T16:19:45.677Z,99.91
2022-10-20T16:20:46.104Z,99.72
2022-10-20T16:21:46.824Z,99.64
2022-10-20T16:22:46.956Z,99.62
2022-10-20T16:23:47.140Z,99.58
2022-10-20T16:24:48.271Z,99.3
2022-10-20T16:25:47.867Z,99.34
2022-10-20T16:26:48.361Z,99.14
2022-10-20T16:27:49.319Z,99.17
2022-10-20T16:28:49.304Z,99.04
2022-10-20T16:29:50.915Z,99.08
2022-10-20T16:30:49.952Z,99.44
2022-10-20T16:31:50.266Z,99.69
2022-10-20T16:32:50.783Z,99.51
2022-10-20T16:33:51.305Z,99.57
2022-10-20T16:34:51.379Z,99.82
2022-10-20T16:35:51.831Z,99.88
2022-10-20T16:36:52.350Z,99.76
2022-10-20T16:37:55.625Z,99.99
2022-10-20T16:38:58.611Z,100
2022-10-20T16:39:56.366Z,99.99
2022-10-20T16:41:04.461Z,99.97
2022-10-20T16:41:57.228Z,99.76
2022-10-20T16:42:59.960Z,99.85
2022-10-20T16:44:00.953Z,99.82
2022-10-20T16:44:58.916Z,99.8
2022-10-20T16:45:59.071Z,99.78
2022-10-20T16:46:59.693Z,99.69
2022-10-20T16:48:00.304Z,99.75
2022-10-20T16:49:00.423Z,99.79
2022-10-20T16:50:00.746Z,99.69
2022-10-20T16:51:04.124Z,99.67
2022-10-20T16:52:01.765Z,99.63
2022-10-20T16:53:02.070Z,99.49
2022-10-20T16:54:03.461Z,99.43
2022-10-20T16:55:03.010Z,99.41
2022-10-20T16:56:04.044Z,99.41
2022-10-20T16:57:05.383Z,99.42
2022-10-20T16:58:04.263Z,99.4
2022-10-20T16:59:04.244Z,99.51
2022-10-20T17:00:09.389Z,99.5
2022-10-20T17:01:11.814Z,99.61
2022-10-20T17:02:11.551Z,99.49
2022-10-20T17:03:09.723Z,99.61
2022-10-20T17:04:11.872Z,99.55
2022-10-20T17:05:10.423Z,99.69
2022-10-20T17:06:11.907Z,99.87
2022-10-20T17:07:11.692Z,99.88
2022-10-20T17:08:11.594Z,99.95
2022-10-20T17:09:11.979Z,99.98
2022-10-20T17:10:12.446Z,99.71
2022-10-20T17:11:18.187Z,99.73
2022-10-20T17:12:16.131Z,99.67
2022-10-20T17:13:16.246Z,99.89
2022-10-20T17:14:16.446Z,99.98
2022-10-20T17:15:17.070Z,100
2022-10-20T17:16:26.217Z,100
2022-10-20T17:17:21.175Z,100
2022-10-20T17:18:22.314Z,100
2022-10-20T17:19:22.012Z,100
2022-10-20T17:20:22.330Z,100
2022-10-20T17:21:22.639Z,100
2022-10-20T17:22:23.366Z,100
2022-10-20T17:23:24.703Z,100
2022-10-20T17:24:23.904Z,100
2022-10-20T17:25:24.225Z,100
2022-10-20T17:26:27.287Z,100
2022-10-20T17:27:25.343Z,100
2022-10-20T17:28:25.708Z,100
2022-10-20T17:29:26.266Z,100
2022-10-20T17:30:26.076Z,100
2022-10-20T17:31:27.313Z,100
2022-10-20T17:32:26.907Z,100
2022-10-20T17:33:28.886Z,100
2022-10-20T17:34:28.162Z,100
2022-10-20T17:35:29.203Z,100
2022-10-20T17:36:29.600Z,100
2022-10-20T17:37:28.885Z,100
2022-10-20T17:38:29.973Z,100
2022-10-20T17:39:29.822Z,100
2022-10-20T17:40:29.928Z,100
2022-10-20T17:41:30.871Z,100
2022-10-20T17:42:32.725Z,100
2022-10-20T17:43:31.086Z,100